createdAt,value
2024-02-26T00:02:00.176Z,10.96
2024-02-26T00:04:26.892Z,10.66
2024-02-26T00:06:55.601Z,10.65
2024-02-26T00:09:22.606Z,10.82
2024-02-26T00:11:49.458Z,10.91
2024-02-26T00:14:16.669Z,10.61
2024-02-26T00:16:43.933Z,11.09
2024-02-26T00:19:10.889Z,11.13
2024-02-26T00:21:43.463Z,10.99
2024-02-26T00:24:10.205Z,10.77
2024-02-26T00:26:37.373Z,10.63
2024-02-26T00:29:04.512Z,10.51
2024-02-26T00:31:31.541Z,10.58
2024-02-26T00:33:58.637Z,10.59
2024-02-26T00:36:25.542Z,10.54
2024-02-26T00:38:52.459Z,10.55
2024-02-26T00:41:20.046Z,10.72
2024-02-26T00:43:47.613Z,10.43
2024-02-26T00:46:14.433Z,10.54
2024-02-26T00:48:41.221Z,10.85
2024-02-26T00:51:08.930Z,11.19
2024-02-26T00:53:35.861Z,10.97
2024-02-26T00:56:02.797Z,10.93
2024-02-26T00:58:29.580Z,10.86
2024-02-26T01:00:56.563Z,11.07
2024-02-26T01:03:23.688Z,11.05
2024-02-26T01:05:50.627Z,11.14
2024-02-26T01:08:17.777Z,10.97
2024-02-26T01:10:44.516Z,10.91
2024-02-26T01:13:12.721Z,10.84
2024-02-26T01:15:39.440Z,10.88
2024-02-26T01:18:06.164Z,11.12
2024-02-26T01:20:33.000Z,11.12
2024-02-26T01:22:59.721Z,10.90
2024-02-26T01:25:26.472Z,10.51
2024-02-26T01:27:53.227Z,10.64
2024-02-26T01:30:20.207Z,11.22
2024-02-26T01:32:47.216Z,11.08
2024-02-26T01:35:13.946Z,10.92
2024-02-26T01:37:41.408Z,11.09
2024-02-26T01:40:08.774Z,11.24
2024-02-26T01:42:35.642Z,11.16
2024-02-26T01:45:02.799Z,11.28
2024-02-26T01:47:31.497Z,11.30
2024-02-26T01:49:58.797Z,11.26
2024-02-26T01:52:25.639Z,11.16
2024-02-26T01:54:52.470Z,11.24
2024-02-26T01:57:19.562Z,10.87
2024-02-26T01:59:46.616Z,10.81
2024-02-26T02:02:16.072Z,10.63
2024-02-26T02:04:43.035Z,10.98
2024-02-26T02:07:10.090Z,10.85
2024-02-26T02:09:37.427Z,11.00
2024-02-26T02:12:04.625Z,11.32
2024-02-26T02:14:33.410Z,11.15
2024-02-26T02:17:00.219Z,10.95
2024-02-26T02:19:27.195Z,11.16
2024-02-26T02:21:54.106Z,10.90
2024-02-26T02:24:21.146Z,10.82
2024-02-26T02:26:48.063Z,10.71
2024-02-26T02:29:15.986Z,10.49
2024-02-26T02:31:43.263Z,10.34
2024-02-26T02:34:10.864Z,10.22
2024-02-26T02:36:50.094Z,10.51
2024-02-26T02:39:16.984Z,10.49
2024-02-26T02:41:43.890Z,10.28
2024-02-26T02:44:10.802Z,10.11
2024-02-26T02:46:38.348Z,10.10
2024-02-26T02:49:05.295Z,9.94
2024-02-26T02:51:32.068Z,9.87
2024-02-26T02:53:58.725Z,10.03
2024-02-26T02:56:25.600Z,10.08
2024-02-26T02:58:52.576Z,10.11
2024-02-26T03:01:19.266Z,10.11
2024-02-26T03:03:46.333Z,10.01
2024-02-26T03:06:13.107Z,9.97
2024-02-26T03:08:40.754Z,9.71
2024-02-26T03:11:07.556Z,9.93
2024-02-26T03:13:34.382Z,9.89
2024-02-26T03:16:06.172Z,10.11
2024-02-26T03:18:33.291Z,10.12
2024-02-26T03:21:00.074Z,10.29
2024-02-26T03:23:26.804Z,10.36
2024-02-26T03:25:53.526Z,10.11
2024-02-26T03:28:20.326Z,9.92
2024-02-26T03:30:47.030Z,9.85
2024-02-26T03:33:13.957Z,9.70
2024-02-26T03:35:41.020Z,9.75
2024-02-26T03:38:07.821Z,9.73
2024-02-26T03:40:34.529Z,9.65
2024-02-26T03:43:01.445Z,9.75
2024-02-26T03:45:29.296Z,9.86
2024-02-26T03:47:56.357Z,10.01
2024-02-26T03:50:23.393Z,9.95
2024-02-26T03:52:50.085Z,10.00
2024-02-26T03:55:16.820Z,10.01
2024-02-26T03:57:44.834Z,9.93
2024-02-26T04:00:12.470Z,9.93
2024-02-26T04:02:39.600Z,10.18
2024-02-26T04:05:09.957Z,10.01
2024-02-26T04:07:36.869Z,9.96
2024-02-26T04:10:07.065Z,9.89
2024-02-26T04:12:33.937Z,9.95
2024-02-26T04:15:00.720Z,9.96
2024-02-26T04:17:27.855Z,9.65
2024-02-26T04:19:54.623Z,9.74
2024-02-26T04:22:21.365Z,9.71
2024-02-26T04:24:48.162Z,9.80
2024-02-26T04:27:15.211Z,9.62
2024-02-26T04:29:42.338Z,9.53
2024-02-26T04:32:09.091Z,9.69
2024-02-26T04:34:36.168Z,9.73
2024-02-26T04:37:04.397Z,9.60
2024-02-26T04:39:31.066Z,9.58
2024-02-26T04:41:57.836Z,9.52
2024-02-26T04:44:24.588Z,9.76
2024-02-26T04:46:51.248Z,9.72
2024-02-26T04:49:18.019Z,9.69
2024-02-26T04:51:44.823Z,9.71
2024-02-26T04:54:11.659Z,9.63
2024-02-26T04:56:38.566Z,9.37
2024-02-26T04:59:05.319Z,9.37
2024-02-26T05:01:32.273Z,9.53
2024-02-26T05:03:59.229Z,9.40
2024-02-26T05:06:26.154Z,9.53
2024-02-26T05:08:53.306Z,9.61
2024-02-26T05:11:20.218Z,9.60
2024-02-26T05:13:47.131Z,9.47
2024-02-26T05:16:14.949Z,9.48
2024-02-26T05:18:41.832Z,9.38
2024-02-26T05:21:08.904Z,9.54
2024-02-26T05:23:35.701Z,9.40
2024-02-26T05:26:02.394Z,9.72
2024-02-26T05:28:29.575Z,9.72
2024-02-26T05:30:56.327Z,9.51
2024-02-26T05:33:24.419Z,9.45
2024-02-26T05:35:51.334Z,9.25
2024-02-26T05:38:18.048Z,9.40
2024-02-26T05:40:45.586Z,9.35
2024-02-26T05:43:12.527Z,9.30
2024-02-26T05:45:39.342Z,9.40
2024-02-26T05:48:06.379Z,9.34
2024-02-26T05:50:33.516Z,9.43
2024-02-26T05:53:00.231Z,9.79
2024-02-26T05:55:27.163Z,9.45
2024-02-26T05:57:54.954Z,9.20
2024-02-26T06:00:22.050Z,9.45
2024-02-26T06:02:48.934Z,9.14
2024-02-26T06:05:15.888Z,9.60
2024-02-26T06:07:42.732Z,9.76
2024-02-26T06:10:10.057Z,9.81
2024-02-26T06:12:37.226Z,9.75
2024-02-26T06:15:05.550Z,9.44
2024-02-26T06:17:33.136Z,9.34
2024-02-26T06:20:02.632Z,9.39
2024-02-26T06:22:31.157Z,9.60
2024-02-26T06:24:57.902Z,9.69
2024-02-26T06:27:25.301Z,9.68
2024-02-26T06:29:53.371Z,9.99
2024-02-26T06:32:24.071Z,9.43
2024-02-26T06:34:50.819Z,9.41
2024-02-26T06:37:19.126Z,9.25
2024-02-26T06:39:46.179Z,9.28
2024-02-26T06:42:13.335Z,9.42
2024-02-26T06:44:40.207Z,9.42
2024-02-26T06:47:06.947Z,9.46
2024-02-26T06:49:33.728Z,9.29
2024-02-26T06:52:00.417Z,9.40
2024-02-26T06:54:27.221Z,9.49
2024-02-26T06:56:54.288Z,9.26
2024-02-26T06:59:21.448Z,9.30
2024-02-26T07:01:48.214Z,9.44
2024-02-26T07:04:15.074Z,9.40
2024-02-26T07:06:42.707Z,9.59
2024-02-26T07:09:09.694Z,9.66
2024-02-26T07:11:36.469Z,9.60
2024-02-26T07:14:03.443Z,9.71
2024-02-26T07:16:30.235Z,9.67
2024-02-26T07:18:57.343Z,9.50
2024-02-26T07:21:24.201Z,9.40
2024-02-26T07:23:51.096Z,9.48
2024-02-26T07:26:19.881Z,9.55
2024-02-26T07:28:46.758Z,9.55
2024-02-26T07:31:14.090Z,9.38
2024-02-26T07:33:40.991Z,9.32
2024-02-26T07:36:07.955Z,9.22
2024-02-26T07:38:42.531Z,9.34
2024-02-26T07:41:11.270Z,9.40
2024-02-26T07:43:38.143Z,9.59
2024-02-26T07:46:05.081Z,9.72
2024-02-26T07:48:32.063Z,9.81
2024-02-26T07:51:01.115Z,9.85
2024-02-26T07:53:28.009Z,9.75
2024-02-26T07:55:54.871Z,9.69
2024-02-26T07:58:21.653Z,9.75
2024-02-26T08:00:48.391Z,9.78
2024-02-26T08:03:16.867Z,9.70
2024-02-26T08:05:44.458Z,9.64
2024-02-26T08:08:11.417Z,9.47
2024-02-26T08:10:38.152Z,9.39
2024-02-26T08:13:07.774Z,9.51
2024-02-26T08:15:35.940Z,9.56
2024-02-26T08:18:06.001Z,9.61
2024-02-26T08:20:33.202Z,9.52
2024-02-26T08:23:00.178Z,9.60
2024-02-26T08:25:27.608Z,9.66
2024-02-26T08:27:54.310Z,9.45
2024-02-26T08:30:21.143Z,9.67
2024-02-26T08:32:51.603Z,9.61
2024-02-26T08:35:20.146Z,9.64
2024-02-26T08:37:48.111Z,9.69
2024-02-26T08:40:16.199Z,9.94
2024-02-26T08:42:43.562Z,9.96
2024-02-26T08:45:11.071Z,10.07
2024-02-26T08:47:38.275Z,10.04
2024-02-26T08:50:06.362Z,10.20
2024-02-26T08:52:34.408Z,10.18
2024-02-26T08:55:01.407Z,10.07
2024-02-26T08:57:29.030Z,10.19
2024-02-26T08:59:55.995Z,10.27
2024-02-26T09:02:25.598Z,10.12
2024-02-26T09:04:54.863Z,10.19
2024-02-26T09:07:23.326Z,10.40
2024-02-26T09:09:50.302Z,10.31
2024-02-26T09:12:17.120Z,10.33
2024-02-26T09:14:46.233Z,10.42
2024-02-26T09:17:13.026Z,10.42
2024-02-26T09:19:40.082Z,10.31
2024-02-26T09:22:06.959Z,10.41
2024-02-26T09:24:35.153Z,10.50
2024-02-26T09:27:02.069Z,10.54
2024-02-26T09:29:29.022Z,10.64
2024-02-26T09:31:56.370Z,10.63
2024-02-26T09:34:23.196Z,10.65
2024-02-26T09:36:49.977Z,10.65
2024-02-26T09:39:21.603Z,10.81
2024-02-26T09:41:49.957Z,10.82
2024-02-26T09:44:23.438Z,10.81
2024-02-26T09:46:53.782Z,10.88
2024-02-26T09:49:22.952Z,10.99
2024-02-26T09:51:51.234Z,11.16
2024-02-26T09:54:18.977Z,11.22
2024-02-26T09:56:59.572Z,11.14
2024-02-26T09:59:37.635Z,11.43
2024-02-26T10:02:11.848Z,11.21
2024-02-26T10:04:40.617Z,11.23
2024-02-26T10:07:13.135Z,11.19
2024-02-26T10:09:40.999Z,11.25
2024-02-26T10:12:11.158Z,11.38
2024-02-26T10:14:38.054Z,11.41
2024-02-26T10:17:09.560Z,11.40
2024-02-26T10:19:38.726Z,11.56
2024-02-26T10:22:06.709Z,11.70
2024-02-26T10:24:35.640Z,11.71
2024-02-26T10:27:04.554Z,11.64
2024-02-26T10:29:32.618Z,11.73
2024-02-26T10:31:59.366Z,11.66
2024-02-26T10:34:27.066Z,11.89
2024-02-26T10:36:55.680Z,12.11
2024-02-26T10:39:23.179Z,12.29
2024-02-26T10:41:51.168Z,12.59
2024-02-26T10:44:19.476Z,12.90
2024-02-26T10:46:50.773Z,13.05
2024-02-26T10:49:21.610Z,12.96
2024-02-26T10:51:55.682Z,12.88
2024-02-26T10:54:24.955Z,12.78
2024-02-26T10:56:52.863Z,12.76
2024-02-26T10:59:21.963Z,12.66
2024-02-26T11:01:50.400Z,12.71
2024-02-26T11:04:18.593Z,12.77
2024-02-26T11:06:50.812Z,12.79
2024-02-26T11:09:18.687Z,12.78
2024-02-26T11:11:46.209Z,12.64
2024-02-26T11:14:15.011Z,12.55
2024-02-26T11:16:43.869Z,12.42
2024-02-26T11:19:13.243Z,12.53
2024-02-26T11:21:46.605Z,12.63
2024-02-26T11:24:15.767Z,12.55
2024-02-26T11:26:49.319Z,12.53
2024-02-26T11:29:20.700Z,12.53
2024-02-26T11:31:48.160Z,12.61
2024-02-26T11:34:15.642Z,12.59
2024-02-26T11:36:43.497Z,12.72
2024-02-26T11:39:13.823Z,12.54
2024-02-26T11:41:40.716Z,12.63
2024-02-26T11:44:08.312Z,12.70
2024-02-26T11:46:43.841Z,12.71
2024-02-26T11:49:40.420Z,12.74
2024-02-26T11:52:09.554Z,12.90
2024-02-26T11:54:45.126Z,12.78
2024-02-26T11:57:34.854Z,12.77
2024-02-26T12:00:08.280Z,12.77
2024-02-26T12:02:42.213Z,12.98
2024-02-26T12:05:25.749Z,12.87
2024-02-26T12:08:00.378Z,12.96
2024-02-26T12:10:27.412Z,13.04
2024-02-26T12:13:00.895Z,13.04
2024-02-26T12:15:33.926Z,13.01
2024-02-26T12:18:06.212Z,13.15
2024-02-26T12:20:33.375Z,13.16
2024-02-26T12:23:00.482Z,13.30
2024-02-26T12:25:29.438Z,13.33
2024-02-26T12:27:56.826Z,13.21
2024-02-26T12:30:23.953Z,13.45
2024-02-26T12:32:52.328Z,13.50
2024-02-26T12:35:19.341Z,13.47
2024-02-26T12:37:47.424Z,13.50
2024-02-26T12:40:15.016Z,13.24
2024-02-26T12:42:42.385Z,13.29
2024-02-26T12:45:11.453Z,13.22
2024-02-26T12:47:39.246Z,13.06
2024-02-26T12:50:09.482Z,13.05
2024-02-26T12:52:40.253Z,13.22
2024-02-26T12:55:10.776Z,13.24
2024-02-26T12:57:44.827Z,13.36
2024-02-26T13:00:17.914Z,13.51
2024-02-26T13:02:46.276Z,13.34
2024-02-26T13:05:15.462Z,13.31
2024-02-26T13:07:48.164Z,13.47
2024-02-26T13:10:15.681Z,13.50
2024-02-26T13:12:46.603Z,13.33
2024-02-26T13:15:21.382Z,13.31
2024-02-26T13:17:49.555Z,13.35
2024-02-26T13:20:30.561Z,13.55
2024-02-26T13:23:07.918Z,13.65
2024-02-26T13:25:36.973Z,13.70
2024-02-26T13:28:11.098Z,13.91
2024-02-26T13:30:38.239Z,13.84
2024-02-26T13:33:12.937Z,13.73
2024-02-26T13:35:40.811Z,13.97
2024-02-26T13:38:07.636Z,14.03
2024-02-26T13:40:35.708Z,14.04
2024-02-26T13:43:02.525Z,14.18
2024-02-26T13:45:32.329Z,14.29
2024-02-26T13:48:12.325Z,14.39
2024-02-26T13:50:46.983Z,14.23
2024-02-26T13:53:14.627Z,14.55
2024-02-26T13:55:45.091Z,14.57
2024-02-26T13:58:14.701Z,14.37
2024-02-26T14:00:43.796Z,14.37
2024-02-26T14:03:11.531Z,14.36
2024-02-26T14:05:38.485Z,14.42
2024-02-26T14:08:05.972Z,14.46
2024-02-26T14:10:33.335Z,14.53
2024-02-26T14:13:00.778Z,14.47
2024-02-26T14:15:30.046Z,14.49
2024-02-26T14:17:58.016Z,14.65
2024-02-26T14:20:26.297Z,14.66
2024-02-26T14:22:54.431Z,14.48
2024-02-26T14:25:22.922Z,14.64
2024-02-26T14:27:49.852Z,14.46
2024-02-26T14:30:16.888Z,14.77
2024-02-26T14:32:45.018Z,14.82
2024-02-26T14:35:15.217Z,14.91
2024-02-26T14:37:49.973Z,14.91
2024-02-26T14:40:17.434Z,14.50
2024-02-26T14:42:45.600Z,14.38
2024-02-26T14:45:13.068Z,14.17
2024-02-26T14:47:41.252Z,14.27
2024-02-26T14:50:08.893Z,14.42
2024-02-26T14:52:35.830Z,14.46
2024-02-26T14:55:02.535Z,14.40
2024-02-26T14:57:30.997Z,14.38
2024-02-26T14:59:57.873Z,14.63
2024-02-26T15:02:24.858Z,14.90
2024-02-26T15:04:51.703Z,15.04
2024-02-26T15:07:21.400Z,14.92
2024-02-26T15:09:48.540Z,14.84
2024-02-26T15:12:16.563Z,14.53
2024-02-26T15:14:43.665Z,14.20
2024-02-26T15:17:11.979Z,14.13
2024-02-26T15:19:39.073Z,14.11
2024-02-26T15:22:06.405Z,14.08
2024-02-26T15:24:33.508Z,13.96
2024-02-26T15:27:00.618Z,14.09
2024-02-26T15:29:27.954Z,13.97
2024-02-26T15:31:54.919Z,13.90
2024-02-26T15:34:21.950Z,13.81
2024-02-26T15:36:49.061Z,13.81
2024-02-26T15:39:15.914Z,13.86
2024-02-26T15:41:42.697Z,13.77
2024-02-26T15:44:09.414Z,13.73
2024-02-26T15:46:41.529Z,13.73
2024-02-26T15:49:11.240Z,13.74
2024-02-26T15:51:39.787Z,13.78
2024-02-26T15:54:06.631Z,13.69
2024-02-26T15:56:33.622Z,13.77
2024-02-26T15:59:00.753Z,13.85
2024-02-26T16:01:29.800Z,13.84
2024-02-26T16:03:58.955Z,13.84
2024-02-26T16:06:44.871Z,13.91
2024-02-26T16:09:11.863Z,13.89
2024-02-26T16:11:38.877Z,13.76
2024-02-26T16:14:37.856Z,13.74
2024-02-26T16:17:35.337Z,13.75
2024-02-26T16:20:05.380Z,13.70
2024-02-26T16:22:37.191Z,13.68
2024-02-26T16:25:04.966Z,13.65
2024-02-26T16:27:31.770Z,13.61
2024-02-26T16:30:01.596Z,13.59
2024-02-26T16:32:31.447Z,13.60
2024-02-26T16:35:00.730Z,13.51
2024-02-26T16:37:28.514Z,13.46
2024-02-26T16:39:59.339Z,13.37
2024-02-26T16:42:27.239Z,13.29
2024-02-26T16:44:57.110Z,13.20
2024-02-26T16:47:24.093Z,13.17
2024-02-26T16:49:50.796Z,13.40
2024-02-26T16:52:17.507Z,13.39
2024-02-26T16:54:44.317Z,13.31
2024-02-26T16:57:11.493Z,13.59
2024-02-26T16:59:38.776Z,13.32
2024-02-26T17:02:06.060Z,13.42
2024-02-26T17:04:33.588Z,13.31
2024-02-26T17:07:01.762Z,13.24
2024-02-26T17:09:28.610Z,13.19
2024-02-26T17:11:56.027Z,13.24
2024-02-26T17:14:23.858Z,13.18
2024-02-26T17:16:51.839Z,13.23
2024-02-26T17:19:19.158Z,13.11
2024-02-26T17:21:45.858Z,13.03
2024-02-26T17:24:12.960Z,13.06
2024-02-26T17:26:39.853Z,13.01
2024-02-26T17:29:07.024Z,13.10
2024-02-26T17:31:38.358Z,13.06
2024-02-26T17:34:05.289Z,13.08
2024-02-26T17:36:32.347Z,12.90
2024-02-26T17:38:59.375Z,12.97
2024-02-26T17:41:26.410Z,12.85
2024-02-26T17:43:55.879Z,12.98
2024-02-26T17:46:22.814Z,12.97
2024-02-26T17:48:51.078Z,13.03
2024-02-26T17:51:17.927Z,12.97
2024-02-26T17:53:44.902Z,12.81
2024-02-26T17:56:11.642Z,12.75
2024-02-26T17:58:41.989Z,12.70
2024-02-26T18:01:10.219Z,12.73
2024-02-26T18:03:37.213Z,12.55
2024-02-26T18:06:05.469Z,12.66
2024-02-26T18:08:34.821Z,12.68
2024-02-26T18:11:02.974Z,12.67
2024-02-26T18:13:30.042Z,12.59
2024-02-26T18:15:58.515Z,12.63
2024-02-26T18:18:27.209Z,12.58
2024-02-26T18:20:54.710Z,12.56
2024-02-26T18:23:24.069Z,12.60
2024-02-26T18:25:50.802Z,12.58
2024-02-26T18:28:19.418Z,12.58
2024-02-26T18:30:48.006Z,12.51
2024-02-26T18:33:15.471Z,12.38
2024-02-26T18:35:42.706Z,12.61
2024-02-26T18:38:09.764Z,12.61
2024-02-26T18:40:36.866Z,12.44
2024-02-26T18:43:05.369Z,12.51
2024-02-26T18:45:32.773Z,12.35
2024-02-26T18:47:59.998Z,12.37
2024-02-26T18:50:26.997Z,12.36
2024-02-26T18:52:54.019Z,12.55
2024-02-26T18:55:20.951Z,12.37
2024-02-26T18:57:49.034Z,12.49
2024-02-26T19:00:16.909Z,12.35
2024-02-26T19:02:44.301Z,12.34
2024-02-26T19:05:12.444Z,12.35
2024-02-26T19:07:40.538Z,12.48
2024-02-26T19:10:09.445Z,12.35
2024-02-26T19:12:36.323Z,12.32
2024-02-26T19:15:03.611Z,12.28
2024-02-26T19:17:30.943Z,12.34
2024-02-26T19:20:00.881Z,12.38
2024-02-26T19:22:28.086Z,12.30
2024-02-26T19:24:55.006Z,12.26
2024-02-26T19:27:22.090Z,12.27
2024-02-26T19:29:48.909Z,12.22
2024-02-26T19:32:15.897Z,12.12
2024-02-26T19:34:46.900Z,12.22
2024-02-26T19:37:14.506Z,12.16
2024-02-26T19:39:41.387Z,11.95
2024-02-26T19:42:08.639Z,11.84
2024-02-26T19:44:35.384Z,12.01
2024-02-26T19:47:02.285Z,12.03
2024-02-26T19:49:29.695Z,11.97
2024-02-26T19:51:56.781Z,11.83
2024-02-26T19:54:23.569Z,11.89
2024-02-26T19:56:52.191Z,11.99
2024-02-26T19:59:20.228Z,12.04
2024-02-26T20:01:47.163Z,11.97
2024-02-26T20:04:15.145Z,11.95
2024-02-26T20:06:42.979Z,11.95
2024-02-26T20:09:09.868Z,12.19
2024-02-26T20:11:40.813Z,12.06
2024-02-26T20:14:12.354Z,11.77
2024-02-26T20:16:39.566Z,11.76
2024-02-26T20:19:12.703Z,11.76
2024-02-26T20:21:40.853Z,11.56
2024-02-26T20:24:08.812Z,11.63
2024-02-26T20:26:39.760Z,11.63
2024-02-26T20:29:07.284Z,11.67
2024-02-26T20:31:34.097Z,11.74
2024-02-26T20:34:02.477Z,11.70
2024-02-26T20:36:32.085Z,11.69
2024-02-26T20:38:58.785Z,11.69
2024-02-26T20:41:26.557Z,11.63
2024-02-26T20:43:53.607Z,11.80
2024-02-26T20:46:20.503Z,11.77
2024-02-26T20:48:47.688Z,11.64
2024-02-26T20:51:14.586Z,11.73
2024-02-26T20:53:42.653Z,11.66
2024-02-26T20:56:09.494Z,11.55
2024-02-26T20:58:37.116Z,11.66
2024-02-26T21:01:04.362Z,11.56
2024-02-26T21:03:31.166Z,11.73
2024-02-26T21:05:58.153Z,11.89
2024-02-26T21:08:32.812Z,11.82
2024-02-26T21:11:06.197Z,11.78
2024-02-26T21:13:34.094Z,11.78
2024-02-26T21:16:01.473Z,11.74
2024-02-26T21:18:28.654Z,11.78
2024-02-26T21:20:58.623Z,11.84
2024-02-26T21:23:26.040Z,11.82
2024-02-26T21:25:53.021Z,11.75
2024-02-26T21:28:20.022Z,11.64
2024-02-26T21:30:46.926Z,11.64
2024-02-26T21:33:14.307Z,11.67
2024-02-26T21:35:41.696Z,11.60
2024-02-26T21:38:10.277Z,11.58
2024-02-26T21:40:37.780Z,11.53
2024-02-26T21:43:04.821Z,11.54
2024-02-26T21:45:31.944Z,11.58
2024-02-26T21:47:58.924Z,11.50
2024-02-26T21:50:25.949Z,11.47
2024-02-26T21:52:52.862Z,11.40
2024-02-26T21:55:20.861Z,11.48
2024-02-26T21:57:47.569Z,11.60
2024-02-26T22:00:15.188Z,11.55
2024-02-26T22:02:42.535Z,11.42
2024-02-26T22:05:09.946Z,11.36
2024-02-26T22:07:37.374Z,11.35
2024-02-26T22:10:05.159Z,11.34
2024-02-26T22:12:31.945Z,11.28
2024-02-26T22:14:58.830Z,11.34
2024-02-26T22:17:25.708Z,11.32
2024-02-26T22:19:52.690Z,11.34
2024-02-26T22:22:20.033Z,11.45
2024-02-26T22:24:46.713Z,11.46
2024-02-26T22:27:13.490Z,11.63
2024-02-26T22:29:40.260Z,11.65
2024-02-26T22:32:07.292Z,11.61
2024-02-26T22:34:34.214Z,11.44
2024-02-26T22:37:00.999Z,11.35
2024-02-26T22:39:27.978Z,11.25
2024-02-26T22:41:55.912Z,11.25
2024-02-26T22:44:22.660Z,11.14
2024-02-26T22:46:49.437Z,11.03
2024-02-26T22:49:16.238Z,11.13
2024-02-26T22:51:43.540Z,11.07
2024-02-26T22:54:10.440Z,11.03
2024-02-26T22:56:38.861Z,11.17
2024-02-26T22:59:06.207Z,11.04
2024-02-26T23:01:33.672Z,11.03
2024-02-26T23:04:00.731Z,11.15
2024-02-26T23:06:27.736Z,11.06
2024-02-26T23:08:54.481Z,10.90
2024-02-26T23:11:21.606Z,10.77
2024-02-26T23:13:48.700Z,10.80
2024-02-26T23:16:15.791Z,10.85
2024-02-26T23:18:42.853Z,10.79
2024-02-26T23:21:09.656Z,10.79
2024-02-26T23:23:36.729Z,10.62
2024-02-26T23:26:04.693Z,10.68
2024-02-26T23:28:31.697Z,10.78
2024-02-26T23:30:58.498Z,10.67
2024-02-26T23:33:25.532Z,10.68
2024-02-26T23:35:52.738Z,10.75
2024-02-26T23:38:19.702Z,10.84
2024-02-26T23:40:46.366Z,10.92
2024-02-26T23:43:13.151Z,10.77
2024-02-26T23:45:40.258Z,10.84
2024-02-26T23:48:07.693Z,10.88
2024-02-26T23:50:35.859Z,10.63
2024-02-26T23:53:05.086Z,10.69
2024-02-26T23:55:33.306Z,10.60
2024-02-26T23:58:00.322Z,10.50
